Latest Weather Observations for Lockhart River

IDQ60801

Issued at 8:32 pm EST Monday 30 March 2015 (issued every 30 minutes, with the page automatically refreshed every 10 minutes)

About weather observations | Map of weather stations | Latest weather observations for QLD | Other Formats
Station Details ID: 028008 Name: LOCKHART RIVER AIRPORT Lat: -12.79 Lon: 143.30 Height: 18.5 m
Data from the previous 72 hours. | See also: Recent months at Lockhart River
Date/Time
EST
Temp
°C
App
Temp
°C
Dew
Point
Rel
Hum
%
Delta-T
°C
Wind Press
QNH
hPa
Press
MSL
hPa
Rain
since 9 am
mm
Dir
 
Spd
km/h
Gust
km/h
Spd
kts
Gust
kts
30/08:30pm 27.3 29.0 23.1 78 2.9 ESE 19 28 10 15 1013.8 - 0.2
30/08:00pm 27.4 29.2 23.2 78 2.9 ESE 19 28 10 15 1013.4 - 0.2
30/07:30pm 27.5 29.3 23.3 78 2.9 ESE 19 28 10 15 1013.1 - 0.2
30/07:00pm 27.4 29.0 23.2 78 2.9 SE 20 32 11 17 1012.8 - 0.2
30/06:30pm 27.4 29.3 23.4 79 2.7 ESE 19 26 10 14 1012.6 - 0.2
30/06:00pm 27.8 28.7 22.7 74 3.5 ESE 22 39 12 21 1012.5 1012.4 0.2
30/05:30pm 28.0 29.1 23.6 77 3.0 ESE 24 35 13 19 1012.4 - 0.2
30/05:00pm 27.4 28.0 23.4 79 2.7 ESE 26 39 14 21 1012.2 - 0.2
30/04:30pm 28.9 30.3 23.6 73 3.7 ESE 22 32 12 17 1012.1 - 0.2
30/04:00pm 29.4 30.6 23.8 72 3.9 ESE 24 35 13 19 1011.7 - 0.2
30/03:30pm 28.7 29.8 23.6 74 3.5 ESE 24 39 13 21 1011.5 - 0.2
30/03:00pm 29.2 29.5 23.6 72 3.9 ESE 28 41 15 22 1011.5 1011.4 0.2
30/02:30pm 29.7 30.3 24.1 72 3.9 ESE 28 43 15 23 1011.7 - 0.2
30/02:00pm 29.9 31.7 24.3 72 3.9 E 22 33 12 18 1011.9 - 0.2
30/01:30pm 28.0 28.4 23.8 78 2.9 ESE 28 39 15 21 1012.4 - 0.2
30/01:00pm 29.6 31.3 24.7 75 3.4 E 24 35 13 19 1012.7 - 0.2
30/12:30pm 29.6 30.9 24.7 75 3.4 ESE 26 37 14 20 1013.2 - 0.2
30/12:00pm 28.7 29.9 23.8 75 3.4 E 24 35 13 19 1013.6 1013.5 0.2
30/11:46am 29.4 31.5 25.4 79 2.8 E 24 35 13 19 1013.8 - 0.2
30/11:30am 29.1 30.8 24.0 74 3.5 E 22 39 12 21 1014.0 - 0.2
30/11:08am 29.9 33.1 25.6 78 3.0 E 19 32 10 17 1014.3 - 0.2
30/11:00am 29.2 30.5 24.1 74 3.5 E 24 35 13 19 1014.4 - 0.2
30/10:30am 28.8 30.4 23.9 75 3.4 ESE 22 33 12 18 1014.7 - 0.2
30/10:00am 28.6 30.8 24.2 77 3.1 E 20 32 11 17 1014.6 - 0.2
30/09:30am 28.6 29.7 23.7 75 3.4 ESE 24 33 13 18 1014.6 - 0.2
30/09:00am 28.8 30.8 24.6 78 2.9 ESE 22 37 12 20 1014.5 1014.4 3.6
30/08:44am 27.7 29.6 23.7 79 2.8 ESE 20 33 11 18 1014.5 - 3.6
30/08:30am 27.9 29.4 23.7 78 2.9 ESE 22 32 12 17 1014.4 - 3.6
30/08:00am 27.4 29.6 24.3 83 2.1 SE 20 28 11 15 1014.0 - 3.6
30/07:30am 27.2 29.9 24.1 83 2.1 ESE 17 24 9 13 1013.7 - 3.6
30/07:00am 26.8 29.9 24.1 85 1.9 ESE 15 20 8 11 1013.4 - 3.6
30/06:30am 26.5 29.8 23.8 85 1.9 SE 13 19 7 10 1013.1 - 3.6
30/06:02am 26.5 29.5 24.0 86 1.7 ESE 15 20 8 11 1012.8 - 3.6
30/06:00am 26.5 29.8 23.8 85 1.9 ESE 13 19 7 10 1012.8 1012.7 3.6
30/05:36am 26.3 28.8 23.8 86 1.7 SE 17 22 9 12 1012.5 - 3.6
30/05:30am 26.4 29.2 23.7 85 1.9 SE 15 24 8 13 1012.4 - 3.6
30/05:00am 26.4 29.7 23.9 86 1.7 SE 13 20 7 11 1012.3 - 3.6
30/04:52am 26.3 29.2 23.8 86 1.7 SE 15 26 8 14 1012.3 - 3.6
30/04:39am 26.4 28.5 23.7 85 1.9 SE 19 28 10 15 1012.2 - 3.6
30/04:30am 26.5 29.5 24.0 86 1.7 SE 15 28 8 15 1012.1 - 3.6
30/04:17am 26.5 30.0 24.2 87 1.6 SE 13 19 7 10 1012.2 - 3.6
30/04:00am 26.4 29.8 24.1 87 1.6 SE 13 19 7 10 1012.1 - 3.6
30/03:30am 26.2 29.1 23.9 87 1.6 ESE 15 22 8 12 1012.1 - 3.6
30/03:20am 26.4 28.6 23.9 86 1.7 ESE 19 22 10 12 1012.0 - 3.6
30/03:00am 26.4 29.1 24.1 87 1.6 SE 17 24 9 13 1011.9 1011.8 3.6
30/02:39am 26.5 28.7 24.0 86 1.7 ESE 19 26 10 14 1011.9 - 3.6
30/02:30am 26.4 28.7 24.1 87 1.6 SE 19 24 10 13 1011.9 - 3.6
30/02:00am 26.4 28.8 24.2 88 1.5 ESE 19 24 10 13 1012.2 - 3.6
30/01:30am 26.3 28.7 24.2 88 1.4 ESE 19 28 10 15 1012.5 - 3.6
30/01:00am 25.8 28.9 24.2 91 1.1 ESE 15 22 8 12 1013.0 - 3.6
30/12:30am 26.4 28.7 24.4 89 1.4 ESE 20 30 11 16 1013.5 - 2.0
30/12:00am 26.1 29.0 24.5 91 1.1 SE 17 24 9 13 1013.9 1013.8 2.0
 
Date/Time
EST
Temp
°C
App
Temp
°C
Dew
Point
Rel
Hum
%
Delta-T
°C
Wind Press
QNH
hPa
Press
MSL
hPa
Rain
since 9 am
mm
Dir
 
Spd
km/h
Gust
km/h
Spd
kts
Gust
kts
29/11:49pm 26.2 28.6 24.6 91 1.1 ESE 20 32 11 17 1014.0 - 2.0
29/11:30pm 26.3 30.0 25.1 93 0.8 SE 15 28 8 15 1014.1 - 0.8
29/11:25pm 26.2 29.8 25.0 93 0.8 SE 15 20 8 11 1014.1 - 0.8
29/11:00pm 25.9 29.2 24.5 92 1.0 ESE 15 20 8 11 1014.2 - 0.8
29/10:30pm 26.1 26.7 24.1 89 1.4 SE 28 43 15 23 1014.1 - 0.8
29/10:00pm 27.0 29.4 24.3 85 1.9 SE 19 24 10 13 1014.0 - 0.0
29/09:30pm 26.5 28.9 24.3 88 1.5 SE 19 28 10 15 1014.0 - 0.0
29/09:27pm 26.6 28.9 24.4 88 1.5 ESE 20 30 11 16 1014.0 - 0.0
29/09:06pm 26.9 29.3 24.2 85 1.9 SE 19 24 10 13 1013.8 - 0.0
29/09:04pm 27.0 29.4 24.3 85 1.9 ESE 19 26 10 14 1013.8 - 0.0
29/09:00pm 26.9 28.9 24.0 84 2.0 SE 20 26 11 14 1013.8 1013.7 0.0
29/08:51pm 27.1 30.0 24.4 85 1.9 ESE 17 26 9 14 1013.9 - 0.0
29/08:30pm 27.0 29.7 24.1 84 2.0 ESE 17 24 9 13 1013.6 - 0.0
29/08:00pm 27.1 29.0 23.8 82 2.3 ESE 20 30 11 16 1013.4 - 0.0
29/07:30pm 27.0 29.8 23.7 82 2.3 ESE 15 20 8 11 1013.2 - 0.0
29/07:00pm 27.0 30.0 23.3 80 2.5 ESE 13 20 7 11 1013.0 - 0.0
29/06:30pm 27.3 30.0 22.9 77 3.0 ESE 13 17 7 9 1012.7 - 0.0
29/06:00pm 27.9 30.0 22.4 72 3.7 ESE 15 22 8 12 1012.4 1012.3 0.0
29/05:30pm 28.6 30.5 22.8 71 3.9 ESE 17 28 9 15 1012.2 - 0.0
29/05:00pm 29.0 30.7 23.0 70 4.1 ESE 19 28 10 15 1011.9 - 0.0
29/04:30pm 28.6 29.8 22.1 68 4.4 E 19 30 10 16 1012.0 - 0.0
29/04:00pm 29.4 31.0 22.9 68 4.4 ESE 19 32 10 17 1011.6 - 0.0
29/03:30pm 29.6 30.6 22.8 67 4.6 ESE 22 32 12 17 1011.6 - 0.0
29/03:00pm 29.5 30.0 22.0 64 5.1 ESE 22 33 12 18 1011.8 1011.7 0.0
29/02:30pm 29.6 31.0 22.8 67 4.6 ESE 20 28 11 15 1011.9 - 0.0
29/02:00pm 29.4 30.6 22.1 65 4.9 ESE 19 32 10 17 1012.0 - 0.0
29/01:30pm 29.9 31.3 22.9 66 4.8 E 20 33 11 18 1012.3 - 0.0
29/01:00pm 29.9 31.9 23.6 69 4.3 E 19 28 10 15 1012.7 - 0.0
29/12:30pm 29.6 31.2 23.3 69 4.3 E 20 32 11 17 1013.2 - 0.0
29/12:00pm 29.4 30.7 22.6 67 4.6 E 20 30 11 16 1013.5 1013.4 0.0
29/11:30am 29.2 30.3 22.4 66 4.6 ESE 20 32 11 17 1014.0 - 0.0
29/11:00am 29.2 30.2 22.9 69 4.3 ESE 22 30 12 16 1014.3 - 0.0
29/10:30am 28.8 29.4 22.8 70 4.1 ESE 24 33 13 18 1014.5 - 0.0
29/10:00am 28.8 30.3 23.0 71 4.0 ESE 20 30 11 16 1014.7 - 0.0
29/09:30am 28.3 29.5 22.5 71 3.9 E 20 30 11 16 1014.5 - 0.0
29/09:00am 28.0 29.3 22.7 73 3.6 ESE 20 28 11 15 1014.2 1014.1 0.0
29/08:30am 28.0 30.4 22.9 74 3.5 ESE 15 28 8 15 1014.1 - 0.0
29/08:00am 27.4 28.5 22.3 73 3.4 ESE 20 32 11 17 1013.7 - 0.0
29/07:30am 26.8 28.2 22.6 78 2.8 ESE 19 24 10 13 1013.4 - 0.0
29/07:00am 23.2 26.8 22.0 93 0.8 S 6 15 3 8 1013.2 - 0.0
29/06:30am 23.5 26.7 20.6 84 1.9 SSE 4 11 2 6 1012.8 - 0.0
29/06:00am 25.0 27.8 22.3 85 1.8 SE 11 15 6 8 1012.4 1012.3 0.0
29/05:30am 25.3 27.9 22.0 82 2.2 SE 11 19 6 10 1012.2 - 0.0
29/05:00am 25.6 27.7 21.7 79 2.6 ESE 13 19 7 10 1012.1 - 0.0
29/04:30am 25.8 27.1 21.7 78 2.7 ESE 17 24 9 13 1011.9 - 0.0
29/04:00am 25.6 27.7 21.7 79 2.6 ESE 13 19 7 10 1012.0 - 0.0
29/03:30am 25.7 27.0 21.6 78 2.7 ESE 17 24 9 13 1012.0 - 0.0
29/03:00am 25.2 28.7 23.6 91 1.1 ESE 11 19 6 10 1012.1 1012.0 0.0
29/02:30am 22.2 26.8 21.7 97 0.3 CALM 0 0 0 0 1012.2 - 0.0
29/02:00am 22.4 27.0 21.7 96 0.5 CALM 0 0 0 0 1012.4 - 0.0
29/01:30am 22.5 26.7 21.7 95 0.5 WNW 2 7 1 4 1012.8 - 0.0
29/01:00am 22.6 26.7 21.6 94 0.7 WNW 2 6 1 3 1013.1 - 0.0
29/12:30am 23.2 27.7 21.6 91 1.1 CALM 0 0 0 0 1013.5 - 0.0
29/12:00am 24.0 27.3 21.5 86 1.7 S 6 9 3 5 1013.7 1013.6 0.0
 
Date/Time
EST
Temp
°C
App
Temp
°C
Dew
Point
Rel
Hum
%
Delta-T
°C
Wind Press
QNH
hPa
Press
MSL
hPa
Rain
since 9 am
mm
Dir
 
Spd
km/h
Gust
km/h
Spd
kts
Gust
kts
28/11:30pm 25.8 27.8 21.5 77 2.9 ESE 13 19 7 10 1014.0 - 0.0
28/11:00pm 26.2 27.5 21.6 76 3.1 ESE 17 20 9 11 1014.1 - 0.0
28/10:30pm 26.1 27.7 21.5 76 3.1 ESE 15 19 8 10 1014.2 - 0.0
28/10:00pm 26.2 28.0 21.8 77 2.9 ESE 15 20 8 11 1014.2 - 0.0
28/09:30pm 26.2 28.0 21.8 77 2.9 ESE 15 22 8 12 1014.1 - 0.0
28/09:00pm 26.2 27.9 21.6 76 3.1 ESE 15 19 8 10 1014.0 1013.9 0.0
28/08:30pm 26.2 28.4 21.8 77 2.9 SE 13 20 7 11 1014.0 - 0.0
28/08:00pm 26.5 28.1 21.5 74 3.3 ESE 15 24 8 13 1013.7 - 0.0
28/07:30pm 26.6 28.4 21.8 75 3.2 ESE 15 22 8 12 1013.2 - 0.0
28/07:00pm 26.8 28.4 21.5 72 3.5 ESE 15 24 8 13 1012.9 - 0.0
28/06:30pm 27.1 28.2 21.2 70 3.9 ESE 17 22 9 12 1012.6 - 0.0
28/06:00pm 27.6 28.5 21.6 70 4.0 ESE 19 30 10 16 1012.1 1012.0 0.0
28/05:30pm 28.1 28.9 21.4 67 4.5 E 19 30 10 16 1011.8 - 0.0
28/05:00pm 28.8 29.6 21.8 66 4.7 ESE 20 30 11 16 1011.5 - 0.0
28/04:30pm 29.1 30.1 22.1 66 4.7 ESE 20 30 11 16 1011.3 - 0.0
28/04:00pm 29.1 30.6 23.1 70 4.1 ESE 20 30 11 16 1011.2 - 0.0
28/03:30pm 28.5 28.9 22.5 70 4.1 ESE 24 33 13 18 1011.5 - 0.0
28/03:00pm 29.1 30.5 22.8 69 4.3 E 20 32 11 17 1011.6 1011.5 0.0
28/02:30pm 29.3 30.7 23.5 71 4.0 E 22 33 12 18 1011.7 - 0.0
28/02:00pm 29.5 30.7 23.2 69 4.3 E 22 32 12 17 1012.1 - 0.0
28/01:30pm 29.5 31.4 23.7 71 4.0 E 20 35 11 19 1012.4 - 0.0
28/01:00pm 29.5 31.1 23.2 69 4.3 ESE 20 30 11 16 1013.0 - 0.0
28/12:30pm 29.8 31.7 23.5 69 4.3 E 19 28 10 15 1013.3 - 0.0
28/12:00pm 29.5 31.6 23.7 71 4.0 E 19 30 10 16 1013.8 1013.7 0.0
28/11:30am 29.3 29.8 23.3 70 4.1 E 26 35 14 19 1014.1 - 0.0
28/11:00am 29.1 30.4 23.3 71 4.0 E 22 35 12 19 1014.4 - 0.0
28/10:30am 28.1 28.8 22.3 70 3.9 E 22 32 12 17 1014.7 - 0.0
28/10:00am 28.9 29.6 22.9 70 4.1 E 24 35 13 19 1014.8 - 0.0
28/09:30am 28.6 30.1 23.7 75 3.4 ESE 22 32 12 17 1014.7 - 0.0
28/09:00am 28.4 30.2 23.5 75 3.4 ESE 20 30 11 16 1014.6 1014.5 0.2
28/08:30am 27.4 29.4 23.6 80 2.6 ESE 19 26 10 14 1014.4 - 0.2
28/08:00am 26.9 28.8 23.4 81 2.4 ESE 19 24 10 13 1014.1 - 0.2
28/07:30am 25.0 29.9 24.3 96 0.5 SSE 6 15 3 8 1013.8 - 0.2
28/07:00am 23.8 29.2 23.3 97 0.3 CALM 0 0 0 0 1013.4 - 0.2
28/06:37am 23.4 28.6 22.9 97 0.3 CALM 0 0 0 0 1013.3 - 0.2
28/06:30am 23.5 28.8 23.0 97 0.3 CALM 0 6 0 3 1013.2 - 0.2
28/06:04am 23.5 28.8 23.0 97 0.3 CALM 0 0 0 0 1013.0 - 0.2
28/06:00am 23.5 28.8 23.0 97 0.3 CALM 0 0 0 0 1013.0 1012.9 0.2
28/05:30am 23.4 28.7 23.1 98 0.2 CALM 0 0 0 0 1012.7 - 0.2
28/05:00am 23.2 28.4 22.9 98 0.2 CALM 0 0 0 0 1012.6 - 0.2
28/04:30am 23.3 28.6 23.0 98 0.2 CALM 0 6 0 3 1012.4 - 0.2
28/04:00am 23.3 28.6 23.0 98 0.2 CALM 0 4 0 2 1012.4 - 0.2
28/03:30am 23.2 28.4 22.9 98 0.2 CALM 0 0 0 0 1012.3 - 0.0
28/03:00am 22.8 26.5 22.3 97 0.3 WNW 6 7 3 4 1012.3 1012.2 0.0
28/02:30am 23.5 28.7 22.8 96 0.5 CALM 0 0 0 0 1012.3 - 0.0
28/02:00am 23.5 28.7 22.8 96 0.5 CALM 0 0 0 0 1012.6 - 0.0
28/01:30am 23.4 28.6 22.9 97 0.3 CALM 0 0 0 0 1012.9 - 0.0
28/01:00am 23.1 28.2 22.6 97 0.3 CALM 0 0 0 0 1013.2 - 0.0
28/12:30am 23.2 28.3 22.7 97 0.3 CALM 0 0 0 0 1013.4 - 0.0
28/12:00am 23.1 28.0 22.4 96 0.5 CALM 0 0 0 0 1013.7 1013.6 0.0
 
Date/Time
EST
Temp
°C
App
Temp
°C
Dew
Point
Rel
Hum
%
Delta-T
°C
Wind Press
QNH
hPa
Press
MSL
hPa
Rain
since 9 am
mm
Dir
 
Spd
km/h
Gust
km/h
Spd
kts
Gust
kts
27/11:30pm 23.2 28.2 22.5 96 0.5 CALM 0 0 0 0 1014.0 - 0.0
27/11:00pm 23.5 28.6 22.7 95 0.5 CALM 0 0 0 0 1014.2 - 0.0
27/10:30pm 24.1 28.4 22.7 92 0.9 SSE 4 7 2 4 1014.3 - 0.0
27/10:00pm 23.9 29.1 22.9 94 0.7 CALM 0 6 0 3 1014.2 - 0.0
27/09:30pm 24.1 29.3 22.9 93 0.8 CALM 0 0 0 0 1014.3 - 0.0
27/09:00pm 24.4 28.7 22.7 90 1.1 ESE 4 7 2 4 1014.1 1014.0 0.0

Other Formats:

Comma delimited format used in spreadsheet applications
http://www.bom.gov.au/fwo/IDQ60801/IDQ60801.94186.axf

JavaScript Object Notation format (JSON) in row-major order
http://www.bom.gov.au/fwo/IDQ60801/IDQ60801.94186.json